createdAt,value
2023-05-04T00:13:47.995Z,1023.9
2023-05-04T00:28:43.838Z,1023.7
2023-05-04T00:43:39.802Z,1023.6
2023-05-04T00:58:36.590Z,1023.6
2023-05-04T01:13:32.287Z,1023.6
2023-05-04T01:28:28.508Z,1023.5
2023-05-04T01:43:24.705Z,1023.5
2023-05-04T01:58:20.901Z,1023.6
2023-05-04T02:28:12.975Z,1023.4
2023-05-04T02:43:09.147Z,1023.5
2023-05-04T02:58:05.156Z,1023.5
2023-05-04T03:13:01.087Z,1023.4
2023-05-04T03:27:56.965Z,1023.4
2023-05-04T03:42:53.331Z,1023.2
2023-05-04T03:57:49.181Z,1023.1
2023-05-04T04:12:45.267Z,1022.9
2023-05-04T04:27:41.661Z,1023
2023-05-04T04:42:37.915Z,1023.1
2023-05-04T04:57:34.465Z,1023
2023-05-04T05:12:31.044Z,1023.1
2023-05-04T05:27:28.003Z,1023.1
2023-05-04T05:42:24.604Z,1023.2
2023-05-04T05:57:21.230Z,1023
2023-05-04T06:12:18.173Z,1022.7
2023-05-04T06:27:14.902Z,1022.4
2023-05-04T06:42:11.695Z,1022.4
2023-05-04T06:57:08.462Z,1022.3
2023-05-04T07:12:05.311Z,1022.2
2023-05-04T07:27:02.130Z,1022.2
2023-05-04T07:41:58.794Z,1022
2023-05-04T07:56:55.958Z,1022
2023-05-04T08:11:52.818Z,1021.8
2023-05-04T08:26:59.971Z,1021.6
2023-05-04T08:41:46.230Z,1021.5
2023-05-04T08:56:43.224Z,1021.4
2023-05-04T09:11:40.034Z,1021.2
2023-05-04T09:26:37.199Z,1021.1
2023-05-04T09:41:33.951Z,1021.1
2023-05-04T09:56:30.926Z,1020.7
2023-05-04T10:11:27.452Z,1020.5
2023-05-04T10:26:23.989Z,1020.3
2023-05-04T10:41:20.636Z,1020.1
2023-05-04T10:56:17.737Z,1019.7
2023-05-04T11:11:14.294Z,1019.5
2023-05-04T11:26:11.139Z,1019.1
2023-05-04T11:41:07.557Z,1018.8
2023-05-04T11:56:03.635Z,1018.7
2023-05-04T12:11:00.213Z,1018.4
2023-05-04T12:25:58.319Z,1018.3
2023-05-04T12:40:53.200Z,1018.1
2023-05-04T12:55:49.307Z,1017.9
2023-05-04T13:10:45.381Z,1018
2023-05-04T13:25:41.737Z,1017.8
2023-05-04T13:40:37.898Z,1017.5
2023-05-04T13:55:34.777Z,1017.4
2023-05-04T14:10:31.152Z,1017.2
2023-05-04T14:25:26.861Z,1017
2023-05-04T14:40:22.835Z,1016.7
2023-05-04T14:55:19.268Z,1016.4
2023-05-04T15:10:15.348Z,1016.1
2023-05-04T15:25:11.905Z,1016.1
2023-05-04T15:40:08.457Z,1016
2023-05-04T15:55:16.808Z,1015.9
2023-05-04T16:10:00.698Z,1016
2023-05-04T16:24:56.494Z,1015.9
2023-05-04T16:39:53.120Z,1015.8
2023-05-04T16:54:49.415Z,1015.6
2023-05-04T17:09:45.459Z,1015.6
2023-05-04T17:24:42.944Z,1015.9
2023-05-04T17:39:36.986Z,1015.8
2023-05-04T17:54:32.146Z,1015.9
2023-05-04T18:09:28.107Z,1015.9
2023-05-04T18:24:23.928Z,1015.9
2023-05-04T18:39:19.311Z,1016.1
2023-05-04T18:54:14.825Z,1016.3
2023-05-04T19:09:10.500Z,1016.4
2023-05-04T19:24:05.791Z,1016.4
2023-05-04T19:39:01.410Z,1016.6
2023-05-04T19:53:57.391Z,1016.7
2023-05-04T20:08:53.436Z,1016.8
2023-05-04T20:23:49.249Z,1016.7
2023-05-04T20:38:45.186Z,1016.7
2023-05-04T20:53:41.168Z,1016.7
2023-05-04T21:08:36.930Z,1016.5
2023-05-04T21:23:33.094Z,1016.4
2023-05-04T21:38:29.577Z,1016.4
2023-05-04T21:53:25.717Z,1016.3
2023-05-04T22:08:22.366Z,1016.3
2023-05-04T22:23:18.311Z,1016.3
2023-05-04T22:38:14.958Z,1016.3
2023-05-04T22:53:11.545Z,1016.3
2023-05-04T23:08:08.120Z,1016.5
2023-05-04T23:23:04.005Z,1016.4
2023-05-04T23:37:59.615Z,1016.3
2023-05-04T23:52:55.660Z,1016.4
